X  Close Metar Aviation Weather Data     EGJJ Jersey Airport
Temperature
7°C Temperature
5°C Dewpoint
87% Humidity



Wind
9 MPH
14 KM/H
4 M/S
8 KTS



310°
NW
Current Conditions

Area Showers Area Showers
Pressure 982.92 (hPa) - 29.03 (inHg)
Visibility 6.2 (mile) - 10 (km)
Airport
Airport-code EGJJ

Location: Jersey Airport
Distance: 5 (mi)

Metar:
EGJJ 050850Z 31008KT 9999 VCSH FEW015CB SCT020 07/05 Q0983

Time: 05-12-2020 08:50 GMT